Terminal Aerodrome Forecast
Issued by NWS Springfield, MO

Home | Current Version | Previous Version | Text Only | Print | Product List | Glossary On
Versions: 1 2 3 4 5 6 7 8 9 10 11 12 13 14 15
808
FTUS43 KSGF 130520
TAFSGF
TAF
KSGF 130520Z 1306/1406 20008KT P6SM SKC
     FM131000 20012KT P6SM SKC WS020/25040KT
     FM131500 25017G27KT P6SM SKC
     FM132200 28016G24KT P6SM FEW250
     FM140000 31010KT P6SM SKC=

USA.gov is the U.S. government's official web portal to all federal, state and local government web resources and services.